Deqen, China
Current Conditions -  °F | °C
As of 5:00 PM on Wednesday 28 Jan 2015 (Local Time) from ZPPP Reporting Station
Clear Clear  
Wind Chill: 19°   Ceiling: Unl
Heat Index: 19°   Visibility: 6mi
Dew Point: -3°   Wind: 25mph
Humidity: 23%   Direction: 240°WSW
Pressure: 29.94"   Gusts: NA
Location:  28.5°N, 98.9°E
Report Text: ZPPP 280900Z 24011MPS CAVOK 19/M03 Q1014 NOSIG
Loading
Personal Weather Stations






























Interactive Weather Map New forecast layout! Learn more

10-Day Weather Forecast

Advertisements
Track Severe Weather on mobile